createdAt,value
2023-05-11T00:01:20.373Z,4.90
2023-05-11T00:03:47.283Z,6.00
2023-05-11T00:06:15.000Z,5.72
2023-05-11T00:08:41.595Z,4.78
2023-05-11T00:11:08.217Z,5.53
2023-05-11T00:13:34.889Z,7.25
2023-05-11T00:16:01.680Z,5.30
2023-05-11T00:18:28.352Z,5.38
2023-05-11T00:20:55.230Z,8.07
2023-05-11T00:23:21.840Z,4.18
2023-05-11T00:25:48.476Z,3.80
2023-05-11T00:28:15.115Z,6.80
2023-05-11T00:30:41.744Z,6.10
2023-05-11T00:33:08.363Z,4.57
2023-05-11T00:35:35.122Z,3.17
2023-05-11T00:38:01.773Z,3.13
2023-05-11T00:40:28.450Z,4.07
2023-05-11T00:42:55.057Z,6.38
2023-05-11T00:45:21.768Z,5.85
2023-05-11T00:47:48.518Z,8.82
2023-05-11T00:50:15.474Z,3.97
2023-05-11T00:52:42.481Z,5.47
2023-05-11T00:55:09.095Z,3.17
2023-05-11T00:57:36.248Z,3.50
2023-05-11T01:00:03.717Z,6.63
2023-05-11T01:02:31.041Z,7.45
2023-05-11T01:04:57.802Z,4.07
2023-05-11T01:07:24.587Z,3.50
2023-05-11T01:09:51.253Z,4.10
2023-05-11T01:12:17.919Z,3.17
2023-05-11T01:14:44.550Z,4.05
2023-05-11T01:17:11.614Z,2.70
2023-05-11T01:19:38.318Z,5.18
2023-05-11T01:22:06.400Z,2.83
2023-05-11T01:24:33.126Z,2.40
2023-05-11T01:27:00.463Z,4.93
2023-05-11T01:29:27.644Z,3.75
2023-05-11T01:31:54.336Z,4.53
2023-05-11T01:34:21.186Z,5.15
2023-05-11T01:36:48.783Z,5.95
2023-05-11T01:39:15.675Z,3.83
2023-05-11T01:41:42.272Z,11.10
2023-05-11T01:44:09.085Z,9.98
2023-05-11T01:46:36.053Z,8.60
2023-05-11T01:49:02.704Z,6.68
2023-05-11T01:51:29.312Z,4.95
2023-05-11T01:53:55.926Z,6.57
2023-05-11T01:56:22.516Z,10.63
2023-05-11T01:58:49.176Z,5.60
2023-05-11T02:01:17.867Z,6.97
2023-05-11T02:03:44.624Z,8.93
2023-05-11T02:06:11.290Z,6.13
2023-05-11T02:08:38.766Z,6.10
2023-05-11T02:11:05.795Z,6.70
2023-05-11T02:13:33.363Z,7.25
2023-05-11T02:16:01.353Z,10.60
2023-05-11T02:18:28.051Z,7.03
2023-05-11T02:20:57.371Z,11.05
2023-05-11T02:23:24.997Z,5.78
2023-05-11T02:25:51.703Z,11.60
2023-05-11T02:28:18.354Z,8.25
2023-05-11T02:30:45.251Z,3.53
2023-05-11T02:33:12.112Z,10.00
2023-05-11T02:35:39.416Z,5.10
2023-05-11T02:38:06.076Z,6.97
2023-05-11T02:40:35.126Z,6.35
2023-05-11T02:43:01.997Z,8.50
2023-05-11T02:45:29.135Z,10.15
2023-05-11T02:47:56.162Z,8.18
2023-05-11T02:50:25.922Z,9.70
2023-05-11T02:52:52.908Z,5.85
2023-05-11T02:55:19.607Z,10.15
2023-05-11T02:57:46.465Z,13.63
2023-05-11T03:00:13.307Z,7.72
2023-05-11T03:02:40.828Z,6.75
2023-05-11T03:05:07.562Z,4.65
2023-05-11T03:07:34.816Z,9.35
2023-05-11T03:10:01.699Z,6.43
2023-05-11T03:12:33.945Z,6.30
2023-05-11T03:15:01.761Z,9.20
2023-05-11T03:17:31.175Z,10.48
2023-05-11T03:19:57.821Z,7.30
2023-05-11T03:22:24.455Z,10.35
2023-05-11T03:24:51.096Z,11.30
2023-05-11T03:27:17.727Z,8.07
2023-05-11T03:29:45.268Z,12.20
2023-05-11T03:32:12.372Z,12.57
2023-05-11T03:34:39.701Z,6.90
2023-05-11T03:37:06.833Z,9.20
2023-05-11T03:39:33.573Z,5.00
2023-05-11T03:42:01.646Z,11.80
2023-05-11T03:44:31.380Z,9.48
2023-05-11T03:46:59.603Z,10.23
2023-05-11T03:49:26.241Z,10.13
2023-05-11T03:51:53.325Z,10.88
2023-05-11T03:54:20.864Z,6.88
2023-05-11T03:56:50.418Z,11.43
2023-05-11T03:59:19.238Z,8.85
2023-05-11T04:01:45.935Z,13.52
2023-05-11T04:04:13.864Z,11.38
2023-05-11T04:06:40.825Z,14.75
2023-05-11T04:09:14.206Z,8.50
2023-05-11T04:11:41.192Z,18.05
2023-05-11T04:14:07.816Z,18.27
2023-05-11T04:16:34.487Z,15.05
2023-05-11T04:19:02.024Z,18.95
2023-05-11T04:21:28.848Z,9.10
2023-05-11T04:23:55.427Z,11.35
2023-05-11T04:26:22.498Z,11.82
2023-05-11T04:28:49.082Z,9.68
2023-05-11T04:31:16.150Z,12.65
2023-05-11T04:33:42.895Z,13.18
2023-05-11T04:36:09.873Z,16.42
2023-05-11T04:38:36.483Z,13.75
2023-05-11T04:41:03.151Z,9.07
2023-05-11T04:43:29.824Z,10.05
2023-05-11T04:45:56.902Z,13.45
2023-05-11T04:48:26.505Z,11.27
2023-05-11T04:50:53.753Z,8.35
2023-05-11T04:53:22.064Z,10.32
2023-05-11T04:55:48.737Z,9.50
2023-05-11T04:58:15.323Z,12.10
2023-05-11T05:00:42.054Z,20.02
2023-05-11T05:03:08.868Z,15.65
2023-05-11T05:05:35.684Z,12.35
2023-05-11T05:08:03.141Z,11.13
2023-05-11T05:10:29.802Z,12.32
2023-05-11T05:12:57.758Z,21.00
2023-05-11T05:15:24.864Z,11.88
2023-05-11T05:17:51.793Z,12.93
2023-05-11T05:20:19.068Z,13.48
2023-05-11T05:22:46.892Z,10.23
2023-05-11T05:25:13.672Z,9.00
2023-05-11T05:27:40.339Z,13.85
2023-05-11T05:30:10.590Z,16.00
2023-05-11T05:32:37.320Z,21.00
2023-05-11T05:35:04.038Z,12.70
2023-05-11T05:37:30.995Z,15.13
2023-05-11T05:39:57.622Z,13.75
2023-05-11T05:42:24.794Z,9.20
2023-05-11T05:44:51.579Z,11.73
2023-05-11T05:47:19.052Z,11.75
2023-05-11T05:49:45.656Z,13.10
2023-05-11T05:52:12.403Z,10.40
2023-05-11T05:54:40.390Z,15.55
2023-05-11T05:57:07.124Z,8.40
2023-05-11T05:59:34.385Z,13.18
2023-05-11T06:02:01.313Z,11.30
2023-05-11T06:04:28.929Z,15.63
2023-05-11T06:06:57.818Z,14.85
2023-05-11T06:09:24.403Z,12.60
2023-05-11T06:11:51.171Z,13.43
2023-05-11T06:14:18.672Z,9.88
2023-05-11T06:16:45.496Z,21.58
2023-05-11T06:19:13.373Z,18.38
2023-05-11T06:21:42.860Z,16.20
2023-05-11T06:24:09.468Z,12.60
2023-05-11T06:26:36.620Z,17.45
2023-05-11T06:29:03.223Z,11.57
2023-05-11T06:31:30.525Z,20.95
2023-05-11T06:33:57.215Z,19.38
2023-05-11T06:36:26.605Z,19.23
2023-05-11T06:38:53.281Z,11.60
2023-05-11T06:41:21.317Z,16.10
2023-05-11T06:43:48.070Z,18.40
2023-05-11T06:46:20.961Z,15.52
2023-05-11T06:48:47.714Z,15.38
2023-05-11T06:51:14.281Z,16.40
2023-05-11T06:53:42.626Z,14.73
2023-05-11T06:56:09.329Z,16.05
2023-05-11T06:58:36.027Z,15.50
2023-05-11T07:01:05.433Z,13.95
2023-05-11T07:03:32.146Z,15.57
2023-05-11T07:05:58.747Z,16.27
2023-05-11T07:08:25.365Z,13.88
2023-05-11T07:10:52.025Z,14.27
2023-05-11T07:13:18.879Z,15.13
2023-05-11T07:15:45.494Z,16.88
2023-05-11T07:18:12.302Z,14.50
2023-05-11T07:20:40.868Z,17.25
2023-05-11T07:23:07.452Z,11.52
2023-05-11T07:25:34.062Z,12.75
2023-05-11T07:28:00.666Z,21.48
2023-05-11T07:30:27.419Z,15.00
2023-05-11T07:32:54.401Z,14.63
2023-05-11T07:35:22.830Z,16.52
2023-05-11T07:37:50.765Z,18.15
2023-05-11T07:40:17.688Z,19.42
2023-05-11T07:42:44.857Z,17.40
2023-05-11T07:45:12.171Z,12.70
2023-05-11T07:47:39.064Z,18.08
2023-05-11T07:50:05.670Z,15.10
2023-05-11T07:52:32.576Z,16.17
2023-05-11T07:54:59.409Z,14.73
2023-05-11T07:57:26.056Z,14.00
2023-05-11T07:59:52.680Z,17.45
2023-05-11T08:02:19.319Z,14.80
2023-05-11T08:04:46.290Z,16.25
2023-05-11T08:07:14.164Z,13.70
2023-05-11T08:09:40.753Z,18.08
2023-05-11T08:12:07.418Z,13.52
2023-05-11T08:14:34.041Z,16.75
2023-05-11T08:17:02.135Z,12.38
2023-05-11T08:19:28.744Z,13.75
2023-05-11T08:21:55.375Z,14.43
2023-05-11T08:24:21.962Z,15.93
2023-05-11T08:26:49.800Z,19.27
2023-05-11T08:29:16.376Z,13.10
2023-05-11T08:31:43.363Z,12.52
2023-05-11T08:34:18.467Z,12.30
2023-05-11T08:36:48.240Z,16.05
2023-05-11T08:39:24.668Z,12.15
2023-05-11T08:41:59.764Z,10.18
2023-05-11T08:44:26.348Z,13.13
2023-05-11T08:47:08.508Z,12.55
2023-05-11T08:49:40.866Z,14.85
2023-05-11T08:52:07.924Z,13.25
2023-05-11T08:54:34.703Z,12.13
2023-05-11T08:57:22.314Z,15.70
2023-05-11T08:59:48.940Z,15.23
2023-05-11T09:02:15.599Z,11.55
2023-05-11T09:04:42.401Z,12.95
2023-05-11T09:07:09.151Z,10.48
2023-05-11T09:09:35.839Z,14.38
2023-05-11T09:12:02.620Z,10.90
2023-05-11T09:14:29.705Z,12.57
2023-05-11T09:16:58.851Z,13.77
2023-05-11T09:19:25.564Z,11.20
2023-05-11T09:21:52.142Z,17.50
2023-05-11T09:24:18.747Z,10.13
2023-05-11T09:26:45.493Z,10.15
2023-05-11T09:29:12.167Z,13.35
2023-05-11T09:31:39.236Z,11.15
2023-05-11T09:34:05.915Z,13.43
2023-05-11T09:36:32.570Z,14.95
2023-05-11T09:38:59.193Z,11.93
2023-05-11T09:41:25.818Z,14.25
2023-05-11T09:43:52.781Z,8.82
2023-05-11T09:46:19.353Z,10.85
2023-05-11T09:48:46.300Z,11.40
2023-05-11T09:51:13.148Z,10.20
2023-05-11T09:53:41.038Z,15.38
2023-05-11T09:56:07.935Z,10.57
2023-05-11T09:58:34.549Z,15.38
2023-05-11T10:01:01.161Z,14.65
2023-05-11T10:03:28.608Z,10.68
2023-05-11T10:05:55.380Z,9.60
2023-05-11T10:08:21.969Z,9.40
2023-05-11T10:10:48.519Z,7.03
2023-05-11T10:13:15.121Z,8.77
2023-05-11T10:15:41.705Z,5.90
2023-05-11T10:18:08.411Z,7.30
2023-05-11T10:20:35.035Z,10.57
2023-05-11T10:23:01.665Z,9.93
2023-05-11T10:25:28.588Z,12.40
2023-05-11T10:27:55.200Z,8.98
2023-05-11T10:30:21.873Z,10.07
2023-05-11T10:32:48.708Z,9.80
2023-05-11T10:35:15.533Z,11.20
2023-05-11T10:37:46.436Z,11.10
2023-05-11T10:40:13.070Z,8.20
2023-05-11T10:42:39.695Z,7.47
2023-05-11T10:45:06.857Z,9.48
2023-05-11T10:47:33.525Z,8.48
2023-05-11T10:50:00.194Z,9.82
2023-05-11T10:52:28.782Z,6.05
2023-05-11T10:54:55.984Z,9.13
2023-05-11T10:57:22.899Z,7.68
2023-05-11T10:59:49.490Z,10.40
2023-05-11T11:02:17.917Z,8.15
2023-05-11T11:04:44.512Z,7.85
2023-05-11T11:07:13.215Z,6.65
2023-05-11T11:09:40.045Z,9.18
2023-05-11T11:12:06.660Z,7.57
2023-05-11T11:14:33.298Z,13.57
2023-05-11T11:16:59.914Z,8.30
2023-05-11T11:19:26.621Z,7.75
2023-05-11T11:21:53.218Z,12.85
2023-05-11T11:24:19.822Z,6.93
2023-05-11T11:26:46.409Z,8.57
2023-05-11T11:29:13.076Z,6.00
2023-05-11T11:31:39.810Z,9.60
2023-05-11T11:34:06.475Z,7.28
2023-05-11T11:36:33.056Z,11.18
2023-05-11T11:39:03.585Z,5.93
2023-05-11T11:41:30.700Z,12.30
2023-05-11T11:43:57.329Z,7.05
2023-05-11T11:46:23.945Z,7.28
2023-05-11T11:48:51.145Z,7.22
2023-05-11T11:51:18.973Z,7.03
2023-05-11T11:53:46.042Z,6.63
2023-05-11T11:56:12.620Z,5.18
2023-05-11T11:58:39.547Z,6.65
2023-05-11T12:01:06.477Z,7.80
2023-05-11T12:03:33.208Z,5.95
2023-05-11T12:06:01.785Z,6.72
2023-05-11T12:08:28.392Z,5.90
2023-05-11T12:10:54.964Z,6.93
2023-05-11T12:13:21.559Z,6.05
2023-05-11T12:15:51.317Z,7.45
2023-05-11T12:18:17.924Z,6.47
2023-05-11T12:20:44.538Z,6.00
2023-05-11T12:23:12.424Z,6.72
2023-05-11T12:25:39.362Z,6.85
2023-05-11T12:28:05.969Z,6.80
2023-05-11T12:30:32.607Z,7.60
2023-05-11T12:33:04.517Z,7.10
2023-05-11T12:35:31.333Z,6.57
2023-05-11T12:37:57.968Z,6.18
2023-05-11T12:40:24.594Z,7.90
2023-05-11T12:42:51.419Z,4.72
2023-05-11T12:45:18.245Z,5.55
2023-05-11T12:47:44.993Z,8.55
2023-05-11T12:50:11.783Z,7.13
2023-05-11T12:52:38.603Z,4.40
2023-05-11T12:55:05.252Z,8.63
2023-05-11T12:57:34.083Z,4.00
2023-05-11T13:00:01.394Z,4.70
2023-05-11T13:02:28.090Z,3.67
2023-05-11T13:04:54.736Z,6.30
2023-05-11T13:07:21.983Z,5.78
2023-05-11T13:09:48.597Z,7.35
2023-05-11T13:12:17.168Z,4.57
2023-05-11T13:14:43.896Z,4.15
2023-05-11T13:17:10.562Z,5.22
2023-05-11T13:19:39.189Z,4.93
2023-05-11T13:22:06.012Z,6.40
2023-05-11T13:24:34.422Z,5.65
2023-05-11T13:27:01.430Z,4.15
2023-05-11T13:29:28.088Z,6.00
2023-05-11T13:31:54.934Z,6.68
2023-05-11T13:34:21.666Z,4.78
2023-05-11T13:36:48.497Z,5.95
2023-05-11T13:39:15.204Z,7.97
2023-05-11T13:41:41.843Z,5.40
2023-05-11T13:44:08.528Z,4.75
2023-05-11T13:46:35.245Z,7.82
2023-05-11T13:49:01.846Z,8.15
2023-05-11T13:51:28.471Z,5.85
2023-05-11T13:53:55.184Z,7.25
2023-05-11T13:56:22.358Z,4.15
2023-05-11T13:58:49.109Z,6.13
2023-05-11T14:01:16.311Z,4.45
2023-05-11T14:03:43.020Z,4.20
2023-05-11T14:06:13.721Z,4.95
2023-05-11T14:08:40.400Z,4.40
2023-05-11T14:11:06.947Z,5.47
2023-05-11T14:13:33.864Z,6.57
2023-05-11T14:16:01.515Z,5.53
2023-05-11T14:18:28.269Z,6.28
2023-05-11T14:20:54.963Z,4.97
2023-05-11T14:23:21.702Z,6.20
2023-05-11T14:25:48.475Z,7.72
2023-05-11T14:28:15.145Z,7.75
2023-05-11T14:30:41.918Z,6.40
2023-05-11T14:33:08.670Z,5.80
2023-05-11T14:35:37.788Z,5.30
2023-05-11T14:38:05.781Z,5.28
2023-05-11T14:40:32.744Z,5.63
2023-05-11T14:42:59.374Z,4.75
2023-05-11T14:45:26.117Z,7.50
2023-05-11T14:47:52.959Z,5.43
2023-05-11T14:50:19.590Z,8.52
2023-05-11T14:52:47.042Z,15.80
2023-05-11T14:55:13.844Z,10.27
2023-05-11T14:57:41.662Z,4.18
2023-05-11T15:00:08.710Z,4.70
2023-05-11T15:02:35.509Z,9.90
2023-05-11T15:05:02.219Z,8.88
2023-05-11T15:07:28.958Z,7.07
2023-05-11T15:09:55.971Z,6.80
2023-05-11T15:12:22.645Z,6.20
2023-05-11T15:14:49.302Z,6.03
2023-05-11T15:17:35.936Z,6.20
2023-05-11T15:20:02.681Z,6.80
2023-05-11T15:22:29.366Z,6.25
2023-05-11T15:24:56.142Z,5.93
2023-05-11T15:30:33.971Z,4.07
2023-05-11T15:33:00.593Z,2.88
2023-05-11T15:35:27.413Z,3.35
2023-05-11T15:38:07.848Z,3.80
2023-05-11T15:40:40.969Z,4.32
2023-05-11T15:43:07.578Z,4.50
2023-05-11T15:45:53.638Z,4.60
2023-05-11T15:48:20.471Z,6.30
2023-05-11T15:50:47.236Z,4.55
2023-05-11T15:53:13.853Z,4.68
2023-05-11T15:55:44.964Z,4.80
2023-05-11T15:58:11.770Z,3.83
2023-05-11T16:00:38.435Z,3.97
2023-05-11T16:03:07.506Z,5.35
2023-05-11T16:05:34.465Z,2.95
2023-05-11T16:08:01.090Z,2.85
2023-05-11T16:10:27.818Z,4.85
2023-05-11T16:12:58.886Z,4.72
2023-05-11T16:15:29.473Z,2.90
2023-05-11T16:17:56.543Z,4.75
2023-05-11T16:20:23.399Z,3.17
2023-05-11T16:22:50.108Z,4.05
2023-05-11T16:25:17.412Z,5.00
2023-05-11T16:27:45.336Z,6.93
2023-05-11T16:30:23.229Z,3.55
2023-05-11T16:32:54.482Z,4.93
2023-05-11T16:35:21.339Z,3.33
2023-05-11T16:38:07.429Z,2.80
2023-05-11T16:40:34.112Z,3.33
2023-05-11T16:43:01.465Z,2.70
2023-05-11T16:45:28.188Z,5.07
2023-05-11T16:47:54.927Z,4.35
2023-05-11T16:50:21.798Z,2.72
2023-05-11T16:52:48.749Z,3.70
2023-05-11T16:55:16.140Z,3.88
2023-05-11T16:57:44.978Z,3.05
2023-05-11T17:00:11.677Z,2.35
2023-05-11T17:02:38.386Z,3.20
2023-05-11T17:05:05.575Z,3.55
2023-05-11T17:07:34.372Z,3.38
2023-05-11T17:10:01.030Z,3.97
2023-05-11T17:12:27.655Z,2.90
2023-05-11T17:14:54.293Z,2.50
2023-05-11T17:17:39.839Z,3.35
2023-05-11T17:20:07.736Z,4.05
2023-05-11T17:22:34.585Z,5.00
2023-05-11T17:25:04.722Z,4.18
2023-05-11T17:27:32.508Z,5.60
2023-05-11T17:30:01.782Z,5.45
2023-05-11T17:32:28.522Z,3.90
2023-05-11T17:34:55.317Z,3.78
2023-05-11T17:37:41.008Z,4.45
2023-05-11T17:40:07.591Z,4.35
2023-05-11T17:42:34.846Z,4.45
2023-05-11T17:45:01.514Z,8.50
2023-05-11T17:47:31.242Z,5.55
2023-05-11T17:49:57.885Z,5.57
2023-05-11T17:52:25.787Z,5.47
2023-05-11T17:54:52.404Z,6.70
2023-05-11T17:57:37.949Z,3.85
2023-05-11T18:00:06.156Z,5.78
2023-05-11T18:02:32.896Z,3.40
2023-05-11T18:04:59.541Z,4.53
2023-05-11T18:07:26.343Z,5.20
2023-05-11T18:09:53.114Z,4.70
2023-05-11T18:12:19.784Z,7.45
2023-05-11T18:14:46.566Z,5.13
2023-05-11T18:17:14.350Z,5.03
2023-05-11T18:19:41.279Z,4.88
2023-05-11T18:22:07.854Z,6.25
2023-05-11T18:24:34.482Z,4.05
2023-05-11T18:27:21.933Z,5.03
2023-05-11T18:29:48.664Z,3.90
2023-05-11T18:32:15.579Z,4.55
2023-05-11T18:34:42.605Z,4.70
2023-05-11T18:37:10.428Z,6.78
2023-05-11T18:39:37.109Z,5.43
2023-05-11T18:42:03.821Z,4.47
2023-05-11T18:44:30.651Z,3.72
2023-05-11T18:46:57.572Z,7.32
2023-05-11T18:49:24.227Z,5.20
2023-05-11T18:51:50.934Z,4.57
2023-05-11T18:54:17.577Z,5.30
2023-05-11T18:56:45.466Z,5.00
2023-05-11T18:59:12.277Z,6.88
2023-05-11T19:01:47.631Z,6.88
2023-05-11T19:04:17.598Z,7.20
2023-05-11T19:06:46.502Z,5.75
2023-05-11T19:09:13.087Z,12.32
2023-05-11T19:11:39.672Z,7.88
2023-05-11T19:14:07.677Z,8.98
2023-05-11T19:19:37.703Z,10.50
2023-05-11T19:22:05.412Z,6.63
2023-05-11T19:24:33.530Z,8.68
2023-05-11T19:27:07.714Z,6.38
2023-05-11T19:29:35.383Z,7.70
2023-05-11T19:32:02.279Z,6.03
2023-05-11T19:34:29.146Z,7.68
2023-05-11T19:36:55.844Z,6.53
2023-05-11T19:39:22.451Z,8.15
2023-05-11T19:41:49.035Z,9.02
2023-05-11T19:44:15.660Z,7.18
2023-05-11T19:47:03.316Z,6.22
2023-05-11T19:49:29.970Z,6.72
2023-05-11T19:51:56.689Z,7.50
2023-05-11T19:54:23.361Z,8.25
2023-05-11T19:56:50.955Z,6.68
2023-05-11T19:59:17.600Z,9.63
2023-05-11T20:01:44.345Z,8.70
2023-05-11T20:04:12.768Z,8.88
2023-05-11T20:06:40.374Z,7.47
2023-05-11T20:09:07.281Z,7.32
2023-05-11T20:11:33.973Z,7.05
2023-05-11T20:14:00.984Z,6.35
2023-05-11T20:16:31.803Z,6.53
2023-05-11T20:18:59.530Z,9.13
2023-05-11T20:21:26.257Z,7.18
2023-05-11T20:23:52.885Z,8.35
2023-05-11T20:26:19.897Z,6.68
2023-05-11T20:28:46.552Z,5.75
2023-05-11T20:31:13.193Z,6.25
2023-05-11T20:36:10.839Z,7.32
2023-05-11T20:38:37.511Z,8.68
2023-05-11T20:41:04.160Z,7.97
2023-05-11T20:43:30.794Z,9.57
2023-05-11T20:49:07.944Z,7.28
2023-05-11T20:51:34.603Z,6.97
2023-05-11T20:54:01.342Z,6.88
2023-05-11T20:56:30.187Z,9.55
2023-05-11T20:58:56.848Z,7.13
2023-05-11T21:01:23.471Z,7.50
2023-05-11T21:03:50.355Z,7.10
2023-05-11T21:06:17.577Z,7.57
2023-05-11T21:08:44.326Z,6.85
2023-05-11T21:11:10.960Z,11.75
2023-05-11T21:13:37.762Z,9.75
2023-05-11T21:16:04.548Z,12.80
2023-05-11T21:18:34.864Z,8.60
2023-05-11T21:21:01.685Z,6.93
2023-05-11T21:23:28.383Z,8.18
2023-05-11T21:25:55.290Z,6.70
2023-05-11T21:28:21.966Z,8.85
2023-05-11T21:30:48.606Z,7.68
2023-05-11T21:33:15.319Z,7.93
2023-05-11T21:35:43.354Z,12.60
2023-05-11T21:38:09.976Z,10.65
2023-05-11T21:40:36.717Z,8.07
2023-05-11T21:43:03.316Z,7.45
2023-05-11T21:45:29.958Z,10.30
2023-05-11T21:47:58.625Z,7.03
2023-05-11T21:50:25.314Z,7.85
2023-05-11T21:52:51.896Z,8.27
2023-05-11T21:55:18.470Z,6.05
2023-05-11T21:57:45.078Z,7.57
2023-05-11T22:00:18.326Z,7.45
2023-05-11T22:02:45.596Z,7.68
2023-05-11T22:05:12.592Z,8.02
2023-05-11T22:07:39.396Z,8.65
2023-05-11T22:10:06.016Z,8.75
2023-05-11T22:12:32.791Z,10.35
2023-05-11T22:14:59.433Z,7.85
2023-05-11T22:17:27.774Z,11.13
2023-05-11T22:19:54.722Z,12.10
2023-05-11T22:22:21.418Z,6.97
2023-05-11T22:24:48.129Z,7.45
2023-05-11T22:27:16.115Z,10.18
2023-05-11T22:29:42.682Z,9.60
2023-05-11T22:32:09.361Z,7.07
2023-05-11T22:34:36.238Z,11.57
2023-05-11T22:37:05.690Z,7.07
2023-05-11T22:39:32.336Z,6.78
2023-05-11T22:41:58.969Z,7.18
2023-05-11T22:44:25.552Z,7.63
2023-05-11T22:46:55.221Z,8.15
2023-05-11T22:49:21.790Z,9.82
2023-05-11T22:51:48.375Z,8.07
2023-05-11T22:54:15.043Z,7.22
2023-05-11T22:56:43.899Z,5.30
2023-05-11T22:59:10.524Z,5.85
2023-05-11T23:01:37.305Z,7.22
2023-05-11T23:04:04.033Z,6.82
2023-05-11T23:06:32.935Z,9.38
2023-05-11T23:08:59.583Z,6.50
2023-05-11T23:11:26.241Z,7.93
2023-05-11T23:13:52.862Z,7.25
2023-05-11T23:16:22.266Z,9.13
2023-05-11T23:18:49.048Z,7.38
2023-05-11T23:21:16.097Z,7.53
2023-05-11T23:23:42.915Z,10.70
2023-05-11T23:26:11.962Z,6.32
2023-05-11T23:28:38.560Z,8.77
2023-05-11T23:31:05.160Z,10.02
2023-05-11T23:33:31.977Z,6.03
2023-05-11T23:36:03.808Z,7.93
2023-05-11T23:38:30.680Z,7.40
2023-05-11T23:40:57.587Z,6.80
2023-05-11T23:43:24.291Z,9.25
2023-05-11T23:45:52.065Z,11.30
2023-05-11T23:48:18.801Z,7.10
2023-05-11T23:50:45.399Z,8.15
2023-05-11T23:53:13.120Z,7.22
2023-05-11T23:55:39.835Z,7.43
2023-05-11T23:58:06.503Z,7.95
